createdAt,value
2018-08-25T00:00:14.829Z,100172.63
2018-08-25T00:01:18.220Z,100170.88
2018-08-25T00:02:21.621Z,100172.47
2018-08-25T00:03:25.115Z,100166.13
2018-08-25T00:04:28.506Z,100160.95
2018-08-25T00:05:31.919Z,100156.78
2018-08-25T00:06:35.318Z,100160.36
2018-08-25T00:07:38.746Z,100157.80
2018-08-25T00:08:42.201Z,100152.83
2018-08-25T00:09:45.584Z,100153.05
2018-08-25T00:10:48.989Z,100153.05
2018-08-25T00:11:52.392Z,100152.24
2018-08-25T00:12:55.811Z,100143.92
2018-08-25T00:13:59.228Z,100144.72
2018-08-25T00:15:02.629Z,100137.78
2018-08-25T00:16:06.222Z,100140.34
2018-08-25T00:17:09.658Z,100143.92
2018-08-25T00:18:13.110Z,100139.76
2018-08-25T00:19:16.596Z,100137.56
2018-08-25T00:20:20.039Z,100134.80
2018-08-25T00:21:23.500Z,100131.22
2018-08-25T00:22:27.023Z,100136.98
2018-08-25T00:23:30.395Z,100133.62
2018-08-25T00:24:33.774Z,100128.07
2018-08-25T00:25:37.183Z,100131.44
2018-08-25T00:26:40.546Z,100134.20
2018-08-25T00:27:43.933Z,100125.30
2018-08-25T00:28:47.285Z,100125.30
2018-08-25T00:29:50.719Z,100126.47
2018-08-25T00:30:59.435Z,100130.25
2018-08-25T00:32:02.838Z,100121.34
2018-08-25T00:33:06.244Z,100117.98
2018-08-25T00:34:09.657Z,100120.97
2018-08-25T00:35:13.096Z,100120.17
2018-08-25T00:36:16.496Z,100117.98
2018-08-25T00:37:20.662Z,100117.18
2018-08-25T00:38:24.084Z,100116.97
2018-08-25T00:39:27.521Z,100113.23
2018-08-25T00:40:30.913Z,100114.41
2018-08-25T00:41:34.319Z,100114.41
2018-08-25T00:42:37.780Z,100112.22
2018-08-25T00:43:41.222Z,100106.08
2018-08-25T00:44:44.690Z,100109.06
2018-08-25T00:45:48.137Z,100104.69
2018-08-25T00:46:51.536Z,100107.47
2018-08-25T00:47:55.135Z,100108.27
2018-08-25T00:48:58.564Z,100103.09
2018-08-25T00:50:02.049Z,100101.33
2018-08-25T00:51:05.718Z,100100.31
2018-08-25T00:52:09.172Z,100099.14
2018-08-25T00:53:12.560Z,100100.31
2018-08-25T00:54:15.981Z,100096.37
2018-08-25T00:55:19.457Z,100097.54
2018-08-25T00:56:22.818Z,100098.93
2018-08-25T00:57:26.242Z,100092.79
2018-08-25T00:58:29.653Z,100099.94
2018-08-25T00:59:33.065Z,100096.95
2018-08-25T01:00:36.676Z,100092.79
2018-08-25T01:01:40.122Z,100093.21
2018-08-25T01:02:43.542Z,100091.02
2018-08-25T01:03:47.027Z,100085.48
2018-08-25T01:04:50.416Z,100085.48
2018-08-25T01:05:53.870Z,100086.86
2018-08-25T01:06:57.281Z,100091.83
2018-08-25T01:08:00.759Z,100083.28
2018-08-25T01:09:04.922Z,100087.45
2018-08-25T01:10:08.364Z,100088.84
2018-08-25T01:11:11.816Z,100085.69
2018-08-25T01:12:15.222Z,100080.72
2018-08-25T01:13:18.643Z,100086.48
2018-08-25T01:14:22.076Z,100083.12
2018-08-25T01:15:25.540Z,100083.92
2018-08-25T01:16:28.936Z,100078.96
2018-08-25T01:17:32.328Z,100076.64
2018-08-25T01:18:35.744Z,100073.41
2018-08-25T01:19:39.148Z,100075.01
2018-08-25T01:20:42.544Z,100070.84
2018-08-25T01:21:45.973Z,100072.23
2018-08-25T01:22:49.350Z,100067.27
2018-08-25T01:23:52.758Z,100075.01
2018-08-25T01:24:56.151Z,100070.05
2018-08-25T01:25:59.520Z,100066.68
2018-08-25T01:27:02.979Z,100070.63
2018-08-25T01:28:06.370Z,100074.00
2018-08-25T01:29:09.973Z,100069.25
2018-08-25T01:30:13.464Z,100069.03
2018-08-25T01:31:16.834Z,100066.47
2018-08-25T01:32:20.256Z,100068.45
2018-08-25T01:33:24.166Z,100059.32
2018-08-25T01:34:27.547Z,100059.32
2018-08-25T01:35:30.960Z,100063.48
2018-08-25T01:36:34.346Z,100057.13
2018-08-25T01:37:37.787Z,100059.91
2018-08-25T01:38:41.173Z,100051.96
2018-08-25T01:39:44.575Z,100054.95
2018-08-25T01:40:47.976Z,100049.98
2018-08-25T01:41:51.436Z,100048.02
2018-08-25T01:42:54.899Z,100047.80
2018-08-25T01:43:58.260Z,100049.19
2018-08-25T01:45:01.698Z,100052.77
2018-08-25T01:46:05.148Z,100049.19
2018-08-25T01:47:08.530Z,100045.02
2018-08-25T01:48:12.013Z,100036.70
2018-08-25T01:49:15.408Z,100036.11
2018-08-25T01:50:18.807Z,100029.55
2018-08-25T01:51:22.236Z,100026.77
2018-08-25T01:52:25.633Z,100025.97
2018-08-25T01:53:29.114Z,100021.23
2018-08-25T01:54:32.538Z,100014.08
2018-08-25T01:55:37.170Z,100017.44
2018-08-25T01:56:40.564Z,100020.80
2018-08-25T01:57:43.980Z,100016.64
2018-08-25T01:58:47.411Z,100012.48
2018-08-25T01:59:50.812Z,100012.90
2018-08-25T02:00:54.228Z,100007.14
2018-08-25T02:01:57.646Z,100009.33
2018-08-25T02:03:01.082Z,100010.13
2018-08-25T02:04:04.479Z,100002.97
2018-08-25T02:05:07.905Z,100003.56
2018-08-25T02:06:11.294Z,100004.58
2018-08-25T02:07:14.672Z,100001.00
2018-08-25T02:08:18.068Z,100000.41
2018-08-25T02:09:21.459Z,99997.42
2018-08-25T02:10:24.855Z,100001.59
2018-08-25T02:11:28.236Z,100001.80
2018-08-25T02:12:32.010Z,99999.61
2018-08-25T02:13:35.414Z,99996.62
2018-08-25T02:14:38.824Z,99998.02
2018-08-25T02:15:42.227Z,99995.83
2018-08-25T02:16:45.634Z,99994.23
2018-08-25T02:17:49.234Z,99991.45
2018-08-25T02:18:53.220Z,99985.11
2018-08-25T02:19:56.772Z,99987.08
2018-08-25T02:21:00.177Z,99987.08
2018-08-25T02:22:03.603Z,99985.11
2018-08-25T02:23:07.001Z,99981.53
2018-08-25T02:24:10.435Z,99980.14
2018-08-25T02:25:13.812Z,99975.39
2018-08-25T02:26:17.176Z,99979.34
2018-08-25T02:27:20.587Z,99973.00
2018-08-25T02:28:24.183Z,99974.39
2018-08-25T02:29:27.537Z,99975.77
2018-08-25T02:30:30.917Z,99976.36
2018-08-25T02:31:34.264Z,99983.30
2018-08-25T02:32:37.663Z,99971.41
2018-08-25T02:33:41.137Z,99973.80
2018-08-25T02:34:44.704Z,99972.79
2018-08-25T02:35:48.114Z,99969.80
2018-08-25T02:36:51.515Z,99971.19
2018-08-25T02:37:54.870Z,99974.77
2018-08-25T02:38:58.266Z,99969.80
2018-08-25T02:40:01.675Z,99967.23
2018-08-25T02:41:05.065Z,99965.64
2018-08-25T02:42:08.574Z,99964.05
2018-08-25T02:43:12.050Z,99963.25
2018-08-25T02:44:15.515Z,99965.16
2018-08-25T02:45:19.011Z,99960.20
2018-08-25T02:46:22.397Z,99967.73
2018-08-25T02:47:25.832Z,99966.34
2018-08-25T02:48:29.308Z,99967.14
2018-08-25T02:49:32.678Z,99969.33
2018-08-25T02:50:36.079Z,99969.91
2018-08-25T02:51:39.502Z,99969.33
2018-08-25T02:52:42.939Z,99969.91
2018-08-25T02:53:46.329Z,99967.14
2018-08-25T02:54:49.721Z,99968.20
2018-08-25T02:55:53.163Z,99968.80
2018-08-25T02:56:56.545Z,99969.00
2018-08-25T02:57:59.944Z,99967.03
2018-08-25T02:59:03.370Z,99967.23
2018-08-25T03:00:06.853Z,99968.63
2018-08-25T03:01:10.242Z,99958.91
2018-08-25T03:02:13.662Z,99956.14
2018-08-25T03:03:17.093Z,99964.67
2018-08-25T03:04:20.518Z,99950.59
2018-08-25T03:05:23.904Z,99950.80
2018-08-25T03:06:27.312Z,99964.67
2018-08-25T03:07:30.691Z,99960.52
2018-08-25T03:08:34.092Z,99956.34
2018-08-25T03:09:37.556Z,99954.75
2018-08-25T03:10:40.972Z,99951.18
2018-08-25T03:11:44.375Z,99949.20
2018-08-25T03:12:47.741Z,99950.59
2018-08-25T03:13:51.177Z,99949.20
2018-08-25T03:14:54.883Z,99950.59
2018-08-25T03:15:58.411Z,99956.73
2018-08-25T03:17:01.789Z,99954.75
2018-08-25T03:18:05.388Z,99963.87
2018-08-25T03:19:08.774Z,99963.87
2018-08-25T03:20:12.164Z,99963.08
2018-08-25T03:21:15.556Z,99961.69
2018-08-25T03:22:18.929Z,99966.44
2018-08-25T03:23:22.429Z,99969.42
2018-08-25T03:24:25.880Z,99968.03
2018-08-25T03:25:29.338Z,99967.23
2018-08-25T03:26:32.736Z,99972.20
2018-08-25T03:27:36.150Z,99967.83
2018-08-25T03:28:39.584Z,99965.85
2018-08-25T03:29:42.940Z,99963.08
2018-08-25T03:30:46.335Z,99963.45
2018-08-25T03:31:49.727Z,99970.02
2018-08-25T03:32:53.128Z,99964.47
2018-08-25T03:33:56.572Z,99966.23
2018-08-25T03:34:59.968Z,99962.87
2018-08-25T03:36:03.382Z,99965.05
2018-08-25T03:37:06.796Z,99960.30
2018-08-25T03:38:10.405Z,99958.50
2018-08-25T03:39:13.788Z,99959.08
2018-08-25T03:40:17.405Z,99959.61
2018-08-25T03:41:20.818Z,99956.42
2018-08-25T03:42:24.206Z,99956.63
2018-08-25T03:43:27.597Z,99948.68
2018-08-25T03:44:30.994Z,99955.63
2018-08-25T03:45:34.408Z,99951.84
2018-08-25T03:46:37.836Z,99946.50
2018-08-25T03:47:41.217Z,99950.45
2018-08-25T03:48:44.614Z,99950.45
2018-08-25T03:49:48.000Z,99950.23
2018-08-25T03:50:51.426Z,99951.84
2018-08-25T03:51:54.856Z,99953.23
2018-08-25T03:52:58.226Z,99953.81
2018-08-25T03:54:01.688Z,99946.66
2018-08-25T03:55:05.106Z,99948.85
2018-08-25T03:56:08.699Z,99946.08
2018-08-25T03:57:12.127Z,99941.33
2018-08-25T03:58:15.541Z,99936.37
2018-08-25T03:59:18.967Z,99940.53
2018-08-25T04:00:23.389Z,99940.73
2018-08-25T04:01:26.885Z,99942.13
2018-08-25T04:02:30.242Z,99936.58
2018-08-25T04:03:33.668Z,99935.40
2018-08-25T04:04:37.074Z,99938.77
2018-08-25T04:05:40.473Z,99936.58
2018-08-25T04:06:43.892Z,99936.58
2018-08-25T04:07:47.290Z,99938.97
2018-08-25T04:08:50.659Z,99940.95
2018-08-25T04:09:54.064Z,99934.02
2018-08-25T04:10:57.483Z,99934.02
2018-08-25T04:12:00.908Z,99932.41
2018-08-25T04:13:04.332Z,99933.21
2018-08-25T04:14:08.691Z,99930.81
2018-08-25T04:15:12.035Z,99929.81
2018-08-25T04:16:15.426Z,99929.81
2018-08-25T04:17:19.024Z,99927.63
2018-08-25T04:18:22.439Z,99934.77
2018-08-25T04:19:25.936Z,99935.95
2018-08-25T04:20:29.374Z,99939.91
2018-08-25T04:21:32.811Z,99932.75
2018-08-25T04:22:36.234Z,99939.69
2018-08-25T04:23:39.628Z,99941.88
2018-08-25T04:24:43.005Z,99944.65
2018-08-25T04:25:46.385Z,99942.47
2018-08-25T04:26:49.780Z,99943.85
2018-08-25T04:27:53.385Z,99942.67
2018-08-25T04:28:56.770Z,99948.22
2018-08-25T04:30:00.161Z,99941.88
2018-08-25T04:31:03.513Z,99947.63
2018-08-25T04:32:07.049Z,99946.25
2018-08-25T04:33:10.476Z,99947.84
2018-08-25T04:34:13.856Z,99952.59
2018-08-25T04:35:17.288Z,99952.01
2018-08-25T04:36:20.661Z,99949.82
2018-08-25T04:37:24.082Z,99946.45
2018-08-25T04:38:27.478Z,99948.43
2018-08-25T04:39:30.894Z,99949.23
2018-08-25T04:40:34.307Z,99949.23
2018-08-25T04:41:37.748Z,99956.17
2018-08-25T04:42:41.168Z,99956.76
2018-08-25T04:43:44.578Z,99952.97
2018-08-25T04:44:47.986Z,99961.50
2018-08-25T04:45:51.451Z,99954.95
2018-08-25T04:46:54.834Z,99952.97
2018-08-25T04:47:58.214Z,99955.95
2018-08-25T04:49:01.602Z,99952.39
2018-08-25T04:50:05.341Z,99956.55
2018-08-25T04:51:08.724Z,99957.34
2018-08-25T04:52:12.161Z,99963.48
2018-08-25T04:53:15.581Z,99961.89
2018-08-25T04:54:18.955Z,99960.70
2018-08-25T04:55:22.352Z,99961.30
2018-08-25T04:56:25.769Z,99956.92
2018-08-25T04:57:29.196Z,99963.06
2018-08-25T04:58:32.578Z,99965.63
2018-08-25T04:59:36.000Z,99960.67
2018-08-25T05:00:39.421Z,99970.97
2018-08-25T05:01:42.863Z,99963.02
2018-08-25T05:02:46.358Z,99963.61
2018-08-25T05:03:49.752Z,99965.80
2018-08-25T05:04:53.190Z,99967.18
2018-08-25T05:05:56.671Z,99970.30
2018-08-25T05:07:00.099Z,99970.89
2018-08-25T05:08:03.691Z,99969.30
2018-08-25T05:09:09.253Z,99966.89
2018-08-25T05:10:12.676Z,99965.72
2018-08-25T05:11:16.094Z,99975.22
2018-08-25T05:12:19.580Z,99976.61
2018-08-25T05:13:22.990Z,99979.38
2018-08-25T05:14:26.403Z,99979.76
2018-08-25T05:15:29.805Z,99978.16
2018-08-25T05:16:33.182Z,99979.55
2018-08-25T05:17:36.695Z,99977.95
2018-08-25T05:18:40.065Z,99980.72
2018-08-25T05:19:43.470Z,99986.27
2018-08-25T05:20:46.833Z,99986.06
2018-08-25T05:21:50.436Z,99981.69
2018-08-25T05:22:53.801Z,99984.46
2018-08-25T05:23:57.243Z,99987.61
2018-08-25T05:25:00.680Z,99985.42
2018-08-25T05:26:04.069Z,99986.02
2018-08-25T05:27:07.467Z,99986.22
2018-08-25T05:28:10.866Z,99986.02
2018-08-25T05:29:14.248Z,99986.02
2018-08-25T05:30:17.648Z,99993.16
2018-08-25T05:31:21.095Z,99989.16
2018-08-25T05:32:24.522Z,99999.97
2018-08-25T05:33:27.935Z,99987.98
2018-08-25T05:34:31.347Z,99997.77
2018-08-25T05:35:34.728Z,99990.36
2018-08-25T05:36:38.170Z,99993.67
2018-08-25T05:37:41.611Z,99994.64
2018-08-25T05:38:45.013Z,100000.90
2018-08-25T05:39:48.389Z,99998.88
2018-08-25T05:40:51.843Z,100001.30
2018-08-25T05:41:57.871Z,99993.94
2018-08-25T05:43:02.143Z,99992.47
2018-08-25T05:44:06.571Z,99996.36
2018-08-25T05:45:11.118Z,99996.95
2018-08-25T05:46:15.161Z,100001.69
2018-08-25T05:47:18.598Z,99990.61
2018-08-25T05:48:22.058Z,100006.16
2018-08-25T05:49:25.482Z,100005.28
2018-08-25T05:50:28.957Z,100012.52
2018-08-25T05:51:32.378Z,100008.30
2018-08-25T05:52:35.794Z,100007.63
2018-08-25T05:53:39.168Z,100010.34
2018-08-25T05:54:42.600Z,100007.94
2018-08-25T05:55:45.970Z,100009.48
2018-08-25T05:56:49.463Z,100014.38
2018-08-25T05:57:52.856Z,100012.56
2018-08-25T05:58:56.253Z,100020.28
2018-08-25T05:59:59.652Z,100015.23
2018-08-25T06:01:03.099Z,100019.98
2018-08-25T06:02:06.546Z,100016.66
2018-08-25T06:03:09.937Z,100018.53
2018-08-25T06:04:13.293Z,100016.34
2018-08-25T06:05:16.681Z,100019.27
2018-08-25T06:06:20.069Z,100026.70
2018-08-25T06:07:23.513Z,100026.49
2018-08-25T06:08:26.894Z,100029.31
2018-08-25T06:09:30.315Z,100021.50
2018-08-25T06:10:33.747Z,100021.52
2018-08-25T06:11:37.159Z,100017.41
2018-08-25T06:12:40.573Z,100020.11
2018-08-25T06:13:43.951Z,100013.93
2018-08-25T06:14:47.369Z,100017.34
2018-08-25T06:15:50.779Z,100016.59
2018-08-25T06:16:54.165Z,100021.91
2018-08-25T06:17:57.664Z,100026.50
2018-08-25T06:19:01.304Z,100026.11
2018-08-25T06:20:04.840Z,100033.02
2018-08-25T06:21:08.339Z,100033.39
2018-08-25T06:22:11.729Z,100027.56
2018-08-25T06:23:15.134Z,100034.33
2018-08-25T06:24:18.516Z,100028.22
2018-08-25T06:25:21.888Z,100034.19
2018-08-25T06:26:25.281Z,100038.48
2018-08-25T06:27:28.702Z,100038.99
2018-08-25T06:28:32.118Z,100037.24
2018-08-25T06:29:35.565Z,100043.28
2018-08-25T06:30:39.006Z,100039.61
2018-08-25T06:31:42.387Z,100033.56
2018-08-25T06:32:45.907Z,100040.37
2018-08-25T06:33:49.353Z,100039.72
2018-08-25T06:34:52.940Z,100042.34
2018-08-25T06:35:56.391Z,100046.12
2018-08-25T06:36:59.782Z,100038.88
2018-08-25T06:38:03.189Z,100048.09
2018-08-25T06:39:08.467Z,100041.98
2018-08-25T06:40:11.854Z,100050.73
2018-08-25T06:41:15.251Z,100044.84
2018-08-25T06:42:18.628Z,100059.62
2018-08-25T06:43:22.044Z,100052.70
2018-08-25T06:44:25.539Z,100057.14
2018-08-25T06:45:28.902Z,100046.41
2018-08-25T06:46:32.304Z,100057.47
2018-08-25T06:47:35.701Z,100058.22
2018-08-25T06:48:40.574Z,100056.98
2018-08-25T06:49:44.010Z,100049.34
2018-08-25T06:50:47.424Z,100052.47
2018-08-25T06:51:50.816Z,100065.52
2018-08-25T06:52:54.288Z,100054.52
2018-08-25T06:53:57.752Z,100057.13
2018-08-25T06:55:01.151Z,100063.31
2018-08-25T06:56:04.576Z,100065.27
2018-08-25T06:57:07.956Z,100063.89
2018-08-25T06:58:11.332Z,100064.11
2018-08-25T06:59:14.741Z,100066.16
2018-08-25T07:00:18.172Z,100064.28
2018-08-25T07:01:21.707Z,100068.76
2018-08-25T07:02:25.144Z,100060.80
2018-08-25T07:03:28.750Z,100067.75
2018-08-25T07:04:34.105Z,100070.96
2018-08-25T07:06:46.927Z,100069.56
2018-08-25T07:07:50.532Z,100066.30
2018-08-25T07:08:53.995Z,100072.27
2018-08-25T07:09:57.404Z,100067.81
2018-08-25T07:11:00.824Z,100070.16
2018-08-25T07:12:04.451Z,100073.78
2018-08-25T07:13:07.828Z,100069.41
2018-08-25T07:14:11.710Z,100065.38
2018-08-25T07:15:15.088Z,100065.06
2018-08-25T07:16:18.520Z,100071.97
2018-08-25T07:17:22.174Z,100059.52
2018-08-25T07:18:25.581Z,100072.27
2018-08-25T07:19:29.022Z,100074.00
2018-08-25T07:20:32.377Z,100072.06
2018-08-25T07:21:35.799Z,100070.73
2018-08-25T07:22:39.218Z,100072.91
2018-08-25T07:23:42.662Z,100078.66
2018-08-25T07:24:46.108Z,100068.58
2018-08-25T07:25:49.670Z,100071.36
2018-08-25T07:26:53.095Z,100073.67
2018-08-25T07:27:56.588Z,100083.78
2018-08-25T07:29:00.025Z,100078.47
2018-08-25T07:30:03.498Z,100080.75
2018-08-25T07:31:06.896Z,100077.63
2018-08-25T07:32:10.352Z,100073.17
2018-08-25T07:33:13.723Z,100080.66
2018-08-25T07:34:17.121Z,100080.66
2018-08-25T07:35:20.506Z,100078.97
2018-08-25T07:36:23.948Z,100079.63
2018-08-25T07:37:27.416Z,100080.56
2018-08-25T07:38:30.797Z,100079.41
2018-08-25T07:39:34.230Z,100090.09
2018-08-25T07:40:37.627Z,100086.84
2018-08-25T07:41:41.406Z,100085.11
2018-08-25T07:42:44.921Z,100085.65
2018-08-25T07:43:48.282Z,100094.99
2018-08-25T07:44:51.711Z,100085.65
2018-08-25T07:45:55.112Z,100088.43
2018-08-25T07:46:58.507Z,100099.03
2018-08-25T07:48:01.952Z,100095.04
2018-08-25T07:49:05.344Z,100098.02
2018-08-25T07:50:09.407Z,100102.07
2018-08-25T07:51:13.064Z,100101.05
2018-08-25T07:52:16.448Z,100095.30
2018-08-25T07:53:19.849Z,100095.30
2018-08-25T07:54:23.362Z,100106.31
2018-08-25T07:55:26.793Z,100099.05
2018-08-25T07:56:30.294Z,100092.16
2018-08-25T07:57:33.705Z,100101.45
2018-08-25T07:58:37.200Z,100101.33
2018-08-25T07:59:40.717Z,100104.98
2018-08-25T08:00:44.163Z,100102.82
2018-08-25T08:01:47.735Z,100102.33
2018-08-25T08:02:51.197Z,100103.00
2018-08-25T08:03:54.670Z,100100.69
2018-08-25T08:04:58.043Z,100099.78
2018-08-25T08:06:01.481Z,100091.02
2018-08-25T08:07:04.909Z,100105.04
2018-08-25T08:08:08.336Z,100098.22
2018-08-25T08:09:12.055Z,100106.50
2018-08-25T08:10:15.456Z,100104.81
2018-08-25T08:11:18.881Z,100104.81
2018-08-25T08:12:22.300Z,100110.70
2018-08-25T08:13:25.697Z,100109.18
2018-08-25T08:14:29.189Z,100109.84
2018-08-25T08:15:32.714Z,100108.16
2018-08-25T08:16:38.014Z,100101.16
2018-08-25T08:17:42.432Z,100105.52
2018-08-25T08:18:46.022Z,100112.43
2018-08-25T08:19:49.993Z,100107.80
2018-08-25T08:20:58.424Z,100095.37
2018-08-25T08:22:05.371Z,100109.58
2018-08-25T08:23:12.525Z,100111.25
2018-08-25T08:24:21.413Z,100115.02
2018-08-25T08:25:30.176Z,100120.14
2018-08-25T08:26:37.623Z,100118.95
2018-08-25T08:27:44.023Z,100116.86
2018-08-25T08:28:50.797Z,100114.98
2018-08-25T08:29:57.822Z,100123.94
2018-08-25T08:31:04.296Z,100125.43
2018-08-25T08:32:11.874Z,100137.52
2018-08-25T08:33:18.559Z,100122.16
2018-08-25T08:34:25.065Z,100117.47
2018-08-25T08:35:31.649Z,100119.40
2018-08-25T08:36:38.448Z,100123.66
2018-08-25T08:37:45.114Z,100128.25
2018-08-25T08:38:54.286Z,100132.84
2018-08-25T08:39:57.730Z,100135.24
2018-08-25T08:41:01.140Z,100146.55
2018-08-25T08:42:04.687Z,100131.78
2018-08-25T08:43:08.069Z,100126.39
2018-08-25T08:44:11.449Z,100140.75
2018-08-25T08:45:14.821Z,100136.02
2018-08-25T08:46:23.741Z,100132.89
2018-08-25T08:47:27.166Z,100133.11
2018-08-25T08:48:30.637Z,100138.28
2018-08-25T08:49:46.307Z,100144.83
2018-08-25T08:50:37.604Z,100138.14
2018-08-25T08:51:40.990Z,100147.45
2018-08-25T08:52:44.346Z,100141.81
2018-08-25T08:53:47.736Z,100131.22
2018-08-25T08:54:51.181Z,100135.34
2018-08-25T08:55:54.675Z,100136.94
2018-08-25T08:56:58.072Z,100143.35
2018-08-25T08:58:01.472Z,100134.61
2018-08-25T08:59:04.996Z,100138.41
2018-08-25T09:00:08.630Z,100141.97
2018-08-25T09:01:12.072Z,100142.84
2018-08-25T09:02:15.628Z,100140.88
2018-08-25T09:03:19.041Z,100135.64
2018-08-25T09:04:22.460Z,100140.88
2018-08-25T09:05:26.304Z,100141.94
2018-08-25T09:06:29.754Z,100143.32
2018-08-25T09:07:33.152Z,100140.77
2018-08-25T09:08:36.627Z,100143.76
2018-08-25T09:09:40.063Z,100145.58
2018-08-25T09:10:43.619Z,100155.48
2018-08-25T09:11:47.043Z,100153.95
2018-08-25T09:12:50.609Z,100156.00
2018-08-25T09:13:54.208Z,100156.66
2018-08-25T09:14:57.644Z,100156.63
2018-08-25T09:16:01.170Z,100156.03
2018-08-25T09:17:04.538Z,100160.19
2018-08-25T09:18:08.194Z,100157.42
2018-08-25T09:19:11.818Z,100157.05
2018-08-25T09:20:15.323Z,100151.16
2018-08-25T09:21:19.441Z,100164.78
2018-08-25T09:22:22.872Z,100163.39
2018-08-25T09:23:26.278Z,100163.17
2018-08-25T09:24:29.759Z,100164.20
2018-08-25T09:25:33.190Z,100161.42
2018-08-25T09:26:36.744Z,100163.17
2018-08-25T09:27:40.160Z,100167.11
2018-08-25T09:28:43.570Z,100158.37
2018-08-25T09:29:47.118Z,100157.34
2018-08-25T09:30:50.516Z,100163.46
2018-08-25T09:31:53.990Z,100164.05
2018-08-25T09:32:57.404Z,100171.77
2018-08-25T09:34:00.807Z,100169.66
2018-08-25T09:35:04.219Z,100165.51
2018-08-25T09:36:07.648Z,100174.83
2018-08-25T09:37:11.036Z,100172.06
2018-08-25T09:38:14.412Z,100155.23
2018-08-25T09:39:17.869Z,100161.80
2018-08-25T09:40:21.286Z,100166.59
2018-08-25T09:41:24.737Z,100159.47
2018-08-25T09:42:28.356Z,100165.80
2018-08-25T09:43:31.774Z,100167.19
2018-08-25T09:44:35.221Z,100170.75
2018-08-25T09:45:38.631Z,100168.78
2018-08-25T09:46:42.178Z,100167.19
2018-08-25T09:47:45.536Z,100160.48
2018-08-25T09:48:49.155Z,100175.48
2018-08-25T09:49:52.625Z,100177.09
2018-08-25T09:50:56.048Z,100177.09
2018-08-25T09:51:59.559Z,100179.86
2018-08-25T09:53:03.074Z,100177.89
2018-08-25T09:54:06.488Z,100178.91
2018-08-25T09:55:09.842Z,100177.53
2018-08-25T09:56:13.264Z,100176.36
2018-08-25T09:57:16.731Z,100174.76
2018-08-25T09:58:20.183Z,100182.70
2018-08-25T09:59:23.673Z,100176.58
2018-08-25T10:00:27.377Z,100180.98
2018-08-25T10:01:32.423Z,100179.35
2018-08-25T10:02:35.841Z,100183.17
2018-08-25T10:03:39.240Z,100183.17
2018-08-25T10:04:42.628Z,100189.29
2018-08-25T10:05:46.036Z,100184.77
2018-08-25T10:06:49.473Z,100189.14
2018-08-25T10:07:52.942Z,100186.95
2018-08-25T10:08:56.393Z,100184.99
2018-08-25T10:09:59.819Z,100186.37
2018-08-25T10:11:03.260Z,100191.33
2018-08-25T10:12:06.643Z,100183.03
2018-08-25T10:13:10.067Z,100183.83
2018-08-25T10:14:13.553Z,100186.37
2018-08-25T10:15:17.022Z,100187.77
2018-08-25T10:16:20.464Z,100187.18
2018-08-25T10:17:23.991Z,100187.98
2018-08-25T10:18:27.438Z,100189.95
2018-08-25T10:19:30.825Z,100186.37
2018-08-25T10:20:34.224Z,100191.70
2018-08-25T10:21:37.662Z,100184.77
2018-08-25T10:22:41.086Z,100198.03
2018-08-25T10:23:44.505Z,100195.84
2018-08-25T10:24:47.915Z,100197.23
2018-08-25T10:25:51.328Z,100196.65
2018-08-25T10:26:54.731Z,100195.63
2018-08-25T10:27:58.369Z,100202.55
2018-08-25T10:29:01.842Z,100201.16
2018-08-25T10:30:05.806Z,100201.97
2018-08-25T10:31:09.174Z,100206.70
2018-08-25T10:32:12.592Z,100203.72
2018-08-25T10:33:15.995Z,100200.95
2018-08-25T10:34:19.419Z,100196.21
2018-08-25T10:35:23.548Z,100198.39
2018-08-25T10:36:26.985Z,100200.95
2018-08-25T10:37:30.635Z,100198.39
2018-08-25T10:38:34.043Z,100197.23
2018-08-25T10:39:37.466Z,100196.06
2018-08-25T10:40:40.901Z,100200.22
2018-08-25T10:41:44.395Z,100199.64
2018-08-25T10:42:47.708Z,100198.69
2018-08-25T10:43:51.190Z,100193.73
2018-08-25T10:44:54.689Z,100199.27
2018-08-25T10:45:58.092Z,100195.37
2018-08-25T10:47:01.537Z,100199.52
2018-08-25T10:48:05.078Z,100193.98
2018-08-25T10:49:08.925Z,100195.37
2018-08-25T10:50:12.608Z,100196.17
2018-08-25T10:51:16.084Z,100192.60
2018-08-25T10:52:19.673Z,100197.56
2018-08-25T10:53:23.122Z,100198.94
2018-08-25T10:54:26.538Z,100196.75
2018-08-25T10:55:30.270Z,100200.33
2018-08-25T10:56:33.727Z,100201.12
2018-08-25T10:57:37.180Z,100195.59
2018-08-25T10:58:40.581Z,100201.71
2018-08-25T10:59:43.973Z,100188.67
2018-08-25T11:00:47.612Z,100197.19
2018-08-25T11:01:50.839Z,100198.80
2018-08-25T11:02:54.269Z,100186.12
2018-08-25T11:03:57.719Z,100199.38
2018-08-25T11:05:01.120Z,100198.22
2018-08-25T11:06:04.529Z,100202.37
2018-08-25T11:07:07.992Z,100203.17
2018-08-25T11:08:11.428Z,100210.09
2018-08-25T11:09:15.106Z,100206.52
2018-08-25T11:10:18.488Z,100210.09
2018-08-25T11:11:21.900Z,100210.67
2018-08-25T11:12:25.518Z,100212.42
2018-08-25T11:13:29.295Z,100210.23
2018-08-25T11:14:32.860Z,100211.84
2018-08-25T11:15:36.286Z,100209.43
2018-08-25T11:16:39.835Z,100210.02
2018-08-25T11:17:43.247Z,100210.02
2018-08-25T11:18:46.640Z,100217.52
2018-08-25T11:19:50.018Z,100216.69
2018-08-25T11:20:53.434Z,100213.11
2018-08-25T11:21:56.872Z,100220.28
2018-08-25T11:23:00.333Z,100210.93
2018-08-25T11:24:03.769Z,100215.08
2018-08-25T11:25:07.203Z,100217.27
2018-08-25T11:26:10.604Z,100216.25
2018-08-25T11:27:14.021Z,100202.41
2018-08-25T11:28:17.444Z,100204.59
2018-08-25T11:29:20.956Z,100210.13
2018-08-25T11:30:24.425Z,100205.98
2018-08-25T11:31:27.814Z,100204.01
2018-08-25T11:32:31.252Z,100212.31
2018-08-25T11:33:34.665Z,100212.90
2018-08-25T11:34:38.106Z,100216.25
2018-08-25T11:35:41.527Z,100214.86
2018-08-25T11:36:44.996Z,100212.90
2018-08-25T11:37:48.546Z,100214.86
2018-08-25T11:38:52.037Z,100219.59
2018-08-25T11:39:55.473Z,100215.45
2018-08-25T11:40:58.905Z,100218.80
2018-08-25T11:42:02.308Z,100211.30
2018-08-25T11:43:05.869Z,100215.23
2018-08-25T11:44:09.369Z,100216.39
2018-08-25T11:45:12.988Z,100227.47
2018-08-25T11:46:16.385Z,100216.39
2018-08-25T11:47:19.749Z,100224.70
2018-08-25T11:48:23.169Z,100224.70
2018-08-25T11:49:26.621Z,100224.70
2018-08-25T11:50:30.052Z,100228.62
2018-08-25T11:51:33.562Z,100224.70
2018-08-25T11:52:36.936Z,100228.05
2018-08-25T11:53:40.335Z,100223.31
2018-08-25T11:54:44.095Z,100223.31
2018-08-25T11:55:47.508Z,100222.51
2018-08-25T11:56:50.924Z,100226.66
2018-08-25T11:57:54.506Z,100222.73
2018-08-25T11:58:58.018Z,100224.91
2018-08-25T12:00:01.397Z,100217.77
2018-08-25T12:01:04.979Z,100222.14
2018-08-25T12:02:08.497Z,100211.88
2018-08-25T12:03:11.896Z,100220.18
2018-08-25T12:04:15.274Z,100220.77
2018-08-25T12:05:18.703Z,100223.53
2018-08-25T12:06:22.724Z,100223.53
2018-08-25T12:07:26.256Z,100220.77
2018-08-25T12:08:29.662Z,100218.80
2018-08-25T12:09:33.150Z,100217.41
2018-08-25T12:10:36.707Z,100219.59
2018-08-25T12:11:40.436Z,100223.97
2018-08-25T12:12:43.903Z,100220.77